Time;durP1;ratioP1;P1;durP2;ratioP2;P2;SDS_P1;SDS_P2;PMS_P1;PMS_P2;Temp;Humidity;BMP_temperature;BMP_pressure;BME280_temperature;BME280_humidity;BME280_pressure;Samples;Min_cycle;Max_cycle;Signal;HPM_P1;HPM_P2
2023/04/09 00:01:47;;;;;;;43.05;24.42;;;7.30;99.90;;;;;;5065866;28;20045;-65
2023/04/09 00:04:13;;;;;;;45.88;25.13;;;7.20;99.90;;;;;;5060307;28;20729;-65
2023/04/09 00:06:39;;;;;;;49.17;25.77;;;7.20;99.90;;;;;;5067255;28;20039;-65
2023/04/09 00:09:04;;;;;;;49.38;25.33;;;7.20;99.90;;;;;;5063664;28;20049;-65
2023/04/09 00:11:31;;;;;;;47.92;25.42;;;7.20;99.90;;;;;;5065099;28;20036;-65
2023/04/09 00:13:57;;;;;;;43.47;24.55;;;7.30;99.90;;;;;;5064384;28;20089;-65
2023/04/09 00:16:23;;;;;;;46.55;24.83;;;7.30;99.90;;;;;;5067001;28;20036;-65
2023/04/09 00:18:49;;;;;;;54.88;25.52;;;7.30;99.90;;;;;;5045390;28;20041;-65
2023/04/09 00:21:15;;;;;;;49.28;24.88;;;7.30;99.90;;;;;;5066993;28;20441;-65
2023/04/09 00:23:41;;;;;;;50.33;24.73;;;7.30;99.90;;;;;;5064932;28;20115;-65
2023/04/09 00:26:07;;;;;;;47.72;25.70;;;7.20;99.90;;;;;;5059427;28;20884;-65
2023/04/09 00:28:33;;;;;;;46.42;24.52;;;7.20;99.90;;;;;;5064822;28;20125;-65
2023/04/09 00:30:59;;;;;;;50.08;25.30;;;7.20;99.90;;;;;;5076427;28;20157;-65
2023/04/09 00:33:25;;;;;;;45.33;24.77;;;7.20;99.90;;;;;;5065487;28;20772;-65
2023/04/09 00:35:51;;;;;;;50.00;25.45;;;7.20;99.90;;;;;;5065897;28;20089;-65
2023/04/09 00:38:16;;;;;;;51.92;25.13;;;7.20;99.90;;;;;;5064592;28;20041;-65
2023/04/09 00:40:42;;;;;;;46.00;24.33;;;7.20;99.90;;;;;;5063006;28;20032;-65
2023/04/09 00:43:08;;;;;;;49.53;24.75;;;7.20;99.90;;;;;;5063399;28;20048;-65
2023/04/09 00:45:35;;;;;;;50.92;24.90;;;7.20;99.90;;;;;;5064115;28;20032;-65
2023/04/09 00:48:01;;;;;;;47.60;24.45;;;7.20;99.90;;;;;;5062967;28;20044;-65
2023/04/09 00:50:27;;;;;;;47.03;25.15;;;7.20;99.90;;;;;;5044196;28;20048;-65
2023/04/09 00:52:52;;;;;;;51.65;23.85;;;7.10;99.90;;;;;;5065874;28;20053;-65
2023/04/09 00:55:20;;;;;;;48.22;25.67;;;7.10;99.90;;;;;;5064852;28;20040;-65
2023/04/09 00:57:45;;;;;;;51.08;26.20;;;7.00;99.90;;;;;;5065839;28;20033;-65
2023/04/09 01:00:12;;;;;;;52.95;25.92;;;6.90;99.90;;;;;;5062856;28;20043;-65
2023/04/09 01:02:38;;;;;;;48.67;26.08;;;6.90;99.90;;;;;;5062732;28;20045;-65
2023/04/09 01:05:04;;;;;;;48.08;25.60;;;6.80;99.90;;;;;;5064428;28;20048;-65
2023/04/09 01:07:29;;;;;;;52.13;25.00;;;6.70;99.90;;;;;;5065965;28;20272;-65
2023/04/09 01:10:23;;;;;;;51.47;24.65;;;6.70;99.90;;;;;;5064220;28;20036;-65
2023/04/09 01:13:32;;;;;;;49.88;24.58;;;6.70;99.90;;;;;;5064423;28;20058;-65
2023/04/09 01:16:00;;;;;;;51.03;25.60;;;6.60;99.90;;;;;;5063276;28;20047;-65
2023/04/09 01:19:05;;;;;;;53.55;25.52;;;6.50;99.90;;;;;;5065466;28;20337;-65
2023/04/09 01:21:33;;;;;;;50.03;25.10;;;6.50;99.90;;;;;;5005503;28;20041;-65
2023/04/09 01:24:28;;;;;;;47.03;24.58;;;6.50;99.90;;;;;;5043803;28;20045;-65
2023/04/09 01:27:02;;;;;;;48.92;24.17;;;6.40;99.90;;;;;;5056507;28;20109;-65
2023/04/09 01:29:31;;;;;;;51.65;24.95;;;6.40;99.90;;;;;;5063784;28;20044;-65
2023/04/09 01:31:59;;;;;;;47.67;23.73;;;6.30;99.90;;;;;;5062356;28;20069;-65
2023/04/09 01:34:27;;;;;;;49.95;24.83;;;6.30;99.90;;;;;;5057176;28;20055;-65
2023/04/09 01:36:56;;;;;;;49.70;24.70;;;6.30;99.90;;;;;;5062805;28;20042;-65
2023/04/09 01:39:22;;;;;;;49.25;23.80;;;6.30;99.90;;;;;;5064230;28;20075;-65
2023/04/09 01:41:52;;;;;;;49.13;25.88;;;6.30;99.90;;;;;;5065349;28;20032;-65
2023/04/09 01:44:19;;;;;;;51.88;24.88;;;6.30;99.90;;;;;;5054895;28;20052;-65
2023/04/09 01:46:49;;;;;;;49.83;24.60;;;6.30;99.90;;;;;;5080610;28;20082;-65
2023/04/09 01:49:15;;;;;;;52.75;26.35;;;6.30;99.90;;;;;;5064772;28;20116;-65
2023/04/09 01:51:42;;;;;;;53.55;23.77;;;6.30;99.90;;;;;;5063068;28;20472;-65
2023/04/09 01:54:07;;;;;;;52.80;25.92;;;6.30;99.90;;;;;;5065595;28;20040;-65
2023/04/09 01:56:46;;;;;;;56.03;26.90;;;6.30;99.90;;;;;;5063356;28;20406;-65
2023/04/09 01:59:13;;;;;;;51.13;25.92;;;6.30;99.90;;;;;;5065248;28;20067;-65
2023/04/09 02:01:45;;;;;;;51.65;25.95;;;6.30;99.90;;;;;;5064207;28;20044;-65
2023/04/09 02:04:39;;;;;;;51.47;25.15;;;6.30;99.90;;;;;;5040860;28;20379;-65
2023/04/09 02:07:38;;;;;;;47.95;23.80;;;6.30;99.90;;;;;;5060439;28;20090;-65
2023/04/09 02:10:07;;;;;;;48.42;24.60;;;6.30;99.90;;;;;;5059503;28;20055;-65
2023/04/09 02:12:36;;;;;;;54.90;26.25;;;6.40;99.90;;;;;;5053885;28;20411;-65
2023/04/09 02:15:02;;;;;;;57.28;25.50;;;6.30;99.90;;;;;;5060268;28;20703;-65
2023/04/09 02:17:28;;;;;;;56.15;27.38;;;6.40;99.90;;;;;;5060614;28;20570;-65
2023/04/09 02:19:54;;;;;;;57.72;28.73;;;6.40;99.90;;;;;;5062194;28;20036;-65
2023/04/09 02:22:19;;;;;;;52.42;26.98;;;6.40;99.90;;;;;;5063475;28;20041;-65
2023/04/09 02:24:46;;;;;;;55.67;26.67;;;6.40;99.90;;;;;;5063562;28;20490;-65
2023/04/09 02:27:11;;;;;;;58.47;26.55;;;6.40;99.90;;;;;;5062309;28;20551;-65
2023/04/09 02:29:39;;;;;;;52.15;26.08;;;6.30;99.90;;;;;;5065114;28;20120;-65
2023/04/09 02:32:05;;;;;;;58.55;28.15;;;6.30;99.90;;;;;;5064530;28;20540;-65
2023/04/09 02:34:30;;;;;;;53.47;27.65;;;6.40;99.90;;;;;;5061675;28;20036;-65
2023/04/09 02:36:56;;;;;;;59.30;27.85;;;6.40;99.90;;;;;;5064600;28;20029;-65
2023/04/09 02:39:22;;;;;;;57.50;28.88;;;6.40;99.90;;;;;;5066808;28;20456;-65
2023/04/09 02:41:48;;;;;;;56.90;27.83;;;6.40;99.90;;;;;;5066224;28;20489;-65
2023/04/09 02:44:13;;;;;;;53.08;26.40;;;6.40;99.90;;;;;;5068097;28;20080;-65
2023/04/09 02:46:40;;;;;;;60.13;28.40;;;6.50;99.90;;;;;;5066235;28;20161;-65
2023/04/09 02:49:06;;;;;;;57.30;28.33;;;6.50;99.90;;;;;;5063735;28;20045;-65
2023/04/09 02:51:34;;;;;;;64.85;29.42;;;6.50;99.90;;;;;;5066526;28;20121;-65
2023/04/09 02:54:00;;;;;;;57.10;28.40;;;6.50;99.90;;;;;;5067113;28;20052;-65
2023/04/09 02:56:26;;;;;;;62.85;29.35;;;6.50;99.90;;;;;;5049627;28;20508;-65
2023/04/09 02:58:52;;;;;;;58.45;28.33;;;6.60;99.90;;;;;;5067907;28;20037;-65
2023/04/09 03:01:19;;;;;;;65.50;29.08;;;6.50;99.90;;;;;;5068265;28;20032;-65
2023/04/09 03:03:45;;;;;;;62.85;29.08;;;6.60;99.90;;;;;;5067175;28;20098;-65
2023/04/09 03:06:11;;;;;;;56.88;28.95;;;6.50;99.90;;;;;;5066446;28;20040;-65
2023/04/09 03:08:37;;;;;;;57.97;28.60;;;6.50;99.90;;;;;;5046786;28;20073;-65
2023/04/09 03:11:03;;;;;;;59.22;28.23;;;6.50;99.90;;;;;;5066496;28;20095;-65
2023/04/09 03:13:28;;;;;;;63.92;30.02;;;6.50;99.90;;;;;;5066089;28;20408;-65
2023/04/09 03:15:54;;;;;;;57.22;29.45;;;6.50;99.90;;;;;;5065342;28;20501;-65
2023/04/09 03:18:20;;;;;;;60.15;29.30;;;6.50;99.90;;;;;;5044135;28;20048;-65
2023/04/09 03:20:46;;;;;;;56.63;27.50;;;6.60;99.90;;;;;;5067591;28;20040;-65
2023/04/09 03:23:12;;;;;;;52.47;25.17;;;6.60;99.90;;;;;;5064480;28;20039;-65
2023/04/09 03:25:37;;;;;;;48.85;24.65;;;6.60;99.90;;;;;;5066940;28;20405;-65
2023/04/09 03:28:03;;;;;;;45.55;23.88;;;6.60;99.90;;;;;;5059988;28;20045;-65
2023/04/09 03:30:29;;;;;;;49.83;24.63;;;6.70;99.90;;;;;;5067152;28;20040;-65
2023/04/09 03:32:55;;;;;;;44.28;22.38;;;6.70;99.90;;;;;;5056709;28;20049;-65
2023/04/09 03:35:20;;;;;;;46.90;24.65;;;6.70;99.90;;;;;;5062867;28;20131;-65
2023/04/09 03:37:46;;;;;;;45.35;23.00;;;6.70;99.90;;;;;;5064647;28;20032;-65
2023/04/09 03:40:13;;;;;;;48.15;24.05;;;6.70;99.90;;;;;;5065311;28;20037;-65
2023/04/09 03:42:38;;;;;;;43.95;23.73;;;6.70;99.90;;;;;;5069391;28;20122;-65
2023/04/09 03:45:05;;;;;;;49.17;26.45;;;6.70;99.90;;;;;;5065300;28;20048;-65
2023/04/09 03:47:31;;;;;;;53.28;27.13;;;6.70;99.90;;;;;;5063950;28;20106;-65
2023/04/09 03:49:57;;;;;;;51.72;26.23;;;6.70;99.90;;;;;;5046283;28;20142;-65
2023/04/09 03:52:23;;;;;;;59.30;28.13;;;6.70;99.90;;;;;;5066091;28;20083;-65
2023/04/09 03:54:49;;;;;;;54.88;27.08;;;6.70;99.90;;;;;;5063252;28;20040;-65
2023/04/09 03:57:15;;;;;;;57.00;27.73;;;6.80;99.90;;;;;;5062313;28;20040;-65
2023/04/09 03:59:41;;;;;;;59.42;27.25;;;6.80;99.90;;;;;;5063298;28;20056;-65
2023/04/09 04:02:06;;;;;;;53.05;28.25;;;6.80;99.90;;;;;;5063386;28;20078;-65
2023/04/09 04:04:32;;;;;;;56.55;28.70;;;6.80;99.90;;;;;;5065726;28;20040;-65
2023/04/09 04:06:58;;;;;;;57.00;29.73;;;6.80;99.90;;;;;;5065271;28;20029;-65
2023/04/09 04:09:23;;;;;;;56.50;27.55;;;6.80;99.90;;;;;;5064754;28;20405;-65
2023/04/09 04:11:49;;;;;;;53.60;28.13;;;6.80;99.90;;;;;;5063732;28;20039;-65
2023/04/09 04:14:15;;;;;;;52.55;25.85;;;6.80;99.90;;;;;;5065672;28;20037;-65
2023/04/09 04:16:41;;;;;;;47.28;25.52;;;6.80;99.90;;;;;;5061487;28;20882;-65
2023/04/09 04:19:07;;;;;;;41.22;22.90;;;6.80;99.90;;;;;;5062627;28;20044;-65
2023/04/09 04:21:32;;;;;;;41.08;22.40;;;6.80;99.90;;;;;;5064244;28;20040;-65
2023/04/09 04:23:58;;;;;;;44.03;22.50;;;6.80;99.90;;;;;;5065522;28;20048;-65
2023/04/09 04:26:24;;;;;;;40.40;22.50;;;6.80;99.90;;;;;;5064599;28;20044;-65
2023/04/09 04:28:50;;;;;;;45.72;22.88;;;6.80;99.90;;;;;;5065378;28;20183;-65
2023/04/09 04:31:15;;;;;;;46.58;23.40;;;6.80;99.90;;;;;;5061053;28;20470;-65
2023/04/09 04:33:42;;;;;;;45.13;23.15;;;6.80;99.90;;;;;;5065680;28;20064;-65
2023/04/09 04:36:09;;;;;;;44.35;24.10;;;6.80;99.90;;;;;;5061552;28;20094;-65
2023/04/09 04:38:35;;;;;;;51.50;25.25;;;6.80;99.90;;;;;;5065743;28;20051;-65
2023/04/09 04:41:02;;;;;;;53.08;24.25;;;6.80;99.90;;;;;;5061351;28;20036;-65
2023/04/09 04:43:28;;;;;;;48.00;25.33;;;6.80;99.90;;;;;;5064460;28;20037;-66
2023/04/09 04:45:54;;;;;;;48.75;26.15;;;6.80;99.90;;;;;;5065443;28;20029;-65
2023/04/09 04:48:20;;;;;;;50.20;26.48;;;6.80;99.90;;;;;;5064376;28;20040;-65
2023/04/09 04:50:46;;;;;;;58.35;28.40;;;6.80;99.90;;;;;;5065128;28;20040;-65
2023/04/09 04:53:12;;;;;;;49.10;25.05;;;6.80;99.90;;;;;;5061010;28;20126;-65
2023/04/09 04:55:38;;;;;;;50.40;27.05;;;6.80;99.90;;;;;;5065599;28;20037;-65
2023/04/09 04:58:04;;;;;;;50.85;25.83;;;6.80;99.90;;;;;;5063860;28;20045;-64
2023/04/09 05:00:30;;;;;;;44.97;24.02;;;6.80;99.90;;;;;;5063346;28;20064;-65
2023/04/09 05:02:56;;;;;;;47.72;23.05;;;6.80;99.90;;;;;;5064635;28;20056;-65
2023/04/09 05:05:22;;;;;;;39.60;21.42;;;6.80;99.90;;;;;;5046571;28;20071;-65
2023/04/09 05:07:47;;;;;;;44.95;22.67;;;6.70;99.90;;;;;;5062921;28;20057;-65
2023/04/09 05:10:13;;;;;;;47.45;24.38;;;6.70;99.90;;;;;;5062649;28;20036;-65
2023/04/09 05:12:39;;;;;;;42.88;22.77;;;6.80;99.90;;;;;;5063291;28;20509;-65
2023/04/09 05:15:05;;;;;;;46.63;23.40;;;6.80;99.90;;;;;;5063036;28;20064;-65
2023/04/09 05:17:31;;;;;;;45.65;24.17;;;6.80;99.90;;;;;;5059458;28;20044;-65
2023/04/09 05:19:57;;;;;;;48.08;24.20;;;6.80;99.90;;;;;;5059205;28;20055;-65
2023/04/09 05:22:23;;;;;;;48.70;23.45;;;6.80;99.90;;;;;;5023443;28;20560;-65
2023/04/09 05:24:48;;;;;;;46.67;23.08;;;6.80;99.90;;;;;;5064655;28;20044;-65
2023/04/09 05:27:14;;;;;;;41.65;21.30;;;6.80;99.90;;;;;;5063660;28;20485;-65
2023/04/09 05:29:40;;;;;;;45.17;23.50;;;6.80;99.90;;;;;;5044727;28;20131;-65
2023/04/09 05:32:08;;;;;;;46.88;23.60;;;6.80;99.90;;;;;;5044638;28;20032;-65
2023/04/09 05:34:34;;;;;;;47.33;24.35;;;6.90;99.90;;;;;;5043501;28;20041;-65
2023/04/09 05:37:00;;;;;;;39.63;22.50;;;6.80;99.90;;;;;;5063156;28;20043;-65
2023/04/09 05:39:25;;;;;;;48.80;24.85;;;6.90;99.90;;;;;;5064876;28;20044;-65
2023/04/09 05:41:51;;;;;;;48.08;25.40;;;6.80;99.90;;;;;;5063106;28;20537;-65
2023/04/09 05:44:17;;;;;;;49.28;25.65;;;6.80;99.90;;;;;;5043453;28;20526;-65
2023/04/09 05:46:43;;;;;;;52.30;27.17;;;6.80;99.90;;;;;;5062761;28;20110;-65
2023/04/09 05:49:09;;;;;;;56.65;28.05;;;6.70;99.90;;;;;;5064370;28;20425;-65
2023/04/09 05:51:35;;;;;;;61.20;28.42;;;6.70;99.90;;;;;;5062460;28;20509;-65
2023/04/09 05:54:02;;;;;;;57.35;28.60;;;6.60;99.90;;;;;;5061412;28;20040;-65
2023/04/09 05:56:28;;;;;;;53.15;28.45;;;6.60;99.90;;;;;;5061303;28;20041;-65
2023/04/09 05:58:54;;;;;;;55.97;29.52;;;6.60;99.90;;;;;;5063590;28;20047;-65
2023/04/09 06:01:20;;;;;;;65.28;31.52;;;6.60;99.90;;;;;;5060754;28;20040;-65
2023/04/09 06:03:46;;;;;;;62.90;30.55;;;6.60;99.90;;;;;;5066088;28;20033;-65
2023/04/09 06:06:12;;;;;;;58.33;29.75;;;6.60;99.90;;;;;;5068349;28;20449;-65
2023/04/09 06:08:38;;;;;;;63.70;31.80;;;6.60;99.90;;;;;;5062103;28;20112;-65
2023/04/09 06:11:08;;;;;;;58.28;31.15;;;6.60;99.90;;;;;;5066097;28;20514;-65
2023/04/09 06:13:34;;;;;;;66.50;32.33;;;6.60;99.90;;;;;;5070758;28;20040;-65
2023/04/09 06:16:02;;;;;;;67.93;31.80;;;6.60;99.90;;;;;;5082904;28;20040;-65
2023/04/09 06:18:28;;;;;;;65.72;32.72;;;6.60;99.90;;;;;;5064036;28;20543;-65
2023/04/09 06:21:04;;;;;;;61.80;31.27;;;6.70;99.90;;;;;;5066651;28;20127;-65
2023/04/09 06:23:35;;;;;;;64.22;31.08;;;6.70;99.90;;;;;;5046364;28;20033;-65
2023/04/09 06:26:01;;;;;;;63.80;32.00;;;6.70;99.90;;;;;;5063120;28;20070;-65
2023/04/09 06:28:31;;;;;;;60.78;31.83;;;6.80;99.90;;;;;;5068443;28;20489;-65
2023/04/09 06:30:57;;;;;;;64.07;32.20;;;6.80;99.90;;;;;;5072300;28;20079;-65
2023/04/09 06:33:23;;;;;;;68.72;32.33;;;6.80;99.90;;;;;;5072987;28;20111;-66
2023/04/09 06:35:49;;;;;;;57.58;30.63;;;6.80;99.90;;;;;;5069389;28;20115;-65
2023/04/09 06:38:15;;;;;;;54.55;30.60;;;6.80;99.90;;;;;;5063957;28;20052;-65
2023/04/09 06:40:41;;;;;;;60.00;31.20;;;6.80;99.90;;;;;;5068446;28;20453;-65
2023/04/09 06:43:08;;;;;;;62.38;31.17;;;6.90;99.90;;;;;;5070894;28;20048;-65
2023/04/09 06:45:35;;;;;;;61.97;30.50;;;6.90;99.90;;;;;;5070414;28;20108;-65
2023/04/09 06:48:00;;;;;;;56.45;30.58;;;7.00;99.90;;;;;;5070742;28;20509;-65
2023/04/09 06:50:26;;;;;;;55.97;28.88;;;7.10;99.90;;;;;;5039231;28;20083;-65
2023/04/09 06:52:53;;;;;;;55.22;29.75;;;7.30;99.90;;;;;;5072106;28;20079;-65
2023/04/09 06:55:19;;;;;;;53.92;29.25;;;7.30;99.90;;;;;;5072292;28;20903;-65
2023/04/09 06:57:45;;;;;;;53.83;28.35;;;7.40;99.90;;;;;;5069307;28;20075;-65
2023/04/09 07:00:11;;;;;;;58.80;29.73;;;7.40;99.90;;;;;;5047201;28;20036;-65
2023/04/09 07:02:37;;;;;;;57.50;28.33;;;7.50;99.90;;;;;;5061616;28;20032;-65
2023/04/09 07:05:03;;;;;;;47.92;27.63;;;7.60;99.90;;;;;;5071719;28;20073;-65
2023/04/09 07:07:29;;;;;;;51.25;28.90;;;7.60;99.90;;;;;;5066600;28;20036;-65
2023/04/09 07:09:55;;;;;;;53.40;27.13;;;7.70;99.90;;;;;;5066385;28;20047;-65
2023/04/09 07:12:30;;;;;;;48.25;25.50;;;7.80;99.90;;;;;;5064274;28;20447;-65
2023/04/09 07:15:01;;;;;;;45.03;26.35;;;7.90;99.90;;;;;;5065896;28;20420;-65
2023/04/09 07:17:27;;;;;;;47.80;26.38;;;7.90;99.90;;;;;;5066337;28;20040;-66
2023/04/09 07:19:53;;;;;;;44.30;25.33;;;7.80;99.90;;;;;;5066546;28;20044;-66
2023/04/09 07:22:23;;;;;;;43.90;24.02;;;7.90;99.90;;;;;;5082487;28;20569;-66
2023/04/09 07:24:52;;;;;;;49.35;24.73;;;8.00;99.90;;;;;;5064659;28;20071;-66
2023/04/09 07:27:23;;;;;;;40.95;23.85;;;8.20;99.90;;;;;;5063852;28;20041;-66
2023/04/09 07:29:49;;;;;;;42.42;24.73;;;8.90;99.90;;;;;;5067925;28;20075;-66
2023/04/09 07:32:15;;;;;;;43.70;25.38;;;9.60;99.90;;;;;;5066740;28;20052;-66
2023/04/09 07:34:41;;;;;;;36.55;23.00;;;9.90;99.90;;;;;;5065181;28;20564;-66
2023/04/09 07:37:07;;;;;;;40.33;24.58;;;10.60;99.90;;;;;;5064914;28;20044;-66
2023/04/09 07:39:33;;;;;;;40.50;25.23;;;10.70;99.90;;;;;;5063845;28;20062;-66
2023/04/09 07:42:03;;;;;;;42.75;24.25;;;11.20;99.90;;;;;;5064299;28;21903;-65
2023/04/09 07:44:32;;;;;;;42.78;25.00;;;11.60;99.90;;;;;;5064787;28;20045;-66
2023/04/09 07:46:58;;;;;;;41.47;25.80;;;12.00;99.90;;;;;;5061700;28;20045;-67
2023/04/09 07:49:24;;;;;;;41.65;25.42;;;12.30;99.90;;;;;;5066421;28;20058;-66
2023/04/09 07:51:50;;;;;;;41.35;25.33;;;12.50;99.90;;;;;;5066151;28;20052;-66
2023/04/09 07:54:15;;;;;;;48.67;25.35;;;12.70;99.90;;;;;;5063745;28;20424;-67
2023/04/09 07:56:41;;;;;;;44.13;26.52;;;12.70;99.90;;;;;;5063002;28;20033;-66
2023/04/09 07:59:07;;;;;;;39.97;25.42;;;12.30;99.90;;;;;;5067760;28;20041;-66
2023/04/09 08:01:32;;;;;;;44.65;27.13;;;12.40;99.90;;;;;;5048619;28;20032;-67
2023/04/09 08:03:58;;;;;;;39.03;25.60;;;12.80;99.90;;;;;;5067007;28;20068;-66
2023/04/09 08:06:25;;;;;;;41.75;26.15;;;13.30;99.90;;;;;;5065452;28;20547;-67
2023/04/09 08:08:52;;;;;;;38.92;26.13;;;13.20;99.90;;;;;;5076641;28;20053;-66
2023/04/09 08:11:23;;;;;;;41.90;27.27;;;13.50;99.90;;;;;;5065282;28;20102;-67
2023/04/09 08:13:50;;;;;;;41.05;26.05;;;13.90;99.90;;;;;;5079393;28;20044;-66
2023/04/09 08:16:16;;;;;;;41.50;25.42;;;14.30;99.90;;;;;;5076955;28;20036;-66
2023/04/09 08:18:42;;;;;;;40.33;25.58;;;14.60;99.90;;;;;;5065481;28;20036;-66
2023/04/09 08:21:08;;;;;;;39.30;26.45;;;14.70;99.90;;;;;;5064901;28;20447;-66
2023/04/09 08:23:33;;;;;;;38.88;24.80;;;14.80;99.90;;;;;;5066184;28;20093;-66
2023/04/09 08:25:59;;;;;;;38.72;26.13;;;15.00;99.90;;;;;;5066103;28;20086;-66
2023/04/09 08:28:25;;;;;;;38.08;25.85;;;14.80;99.90;;;;;;5064139;28;20041;-64
2023/04/09 08:30:51;;;;;;;41.65;26.80;;;15.00;99.90;;;;;;5064545;28;20113;-64
2023/04/09 08:33:17;;;;;;;41.28;26.80;;;15.10;99.90;;;;;;5074916;28;20341;-64
2023/04/09 08:35:43;;;;;;;37.72;24.77;;;15.40;99.90;;;;;;5068625;28;20559;-64
2023/04/09 08:38:08;;;;;;;37.95;25.20;;;15.30;99.90;;;;;;5057141;28;20040;-64
2023/04/09 08:40:35;;;;;;;36.53;24.30;;;15.70;99.90;;;;;;5067805;28;20296;-64
2023/04/09 08:43:08;;;;;;;36.33;25.20;;;16.00;99.90;;;;;;5062848;28;20189;-64
2023/04/09 08:45:34;;;;;;;36.17;24.95;;;16.20;99.90;;;;;;5063122;28;20117;-64
2023/04/09 08:48:02;;;;;;;33.28;24.30;;;15.90;99.90;;;;;;5063495;28;20455;-64
2023/04/09 08:50:34;;;;;;;37.05;25.65;;;16.40;99.90;;;;;;5043448;28;20473;-64
2023/04/09 08:53:07;;;;;;;;;;;16.20;99.90;;;;;;5069117;28;20044;-64
2023/04/09 08:55:33;;;;;;;36.50;23.85;;;15.80;99.90;;;;;;5067212;28;19917;-64
2023/04/09 08:58:02;;;;;;;38.47;25.25;;;15.70;99.90;;;;;;5062411;28;20037;-64
2023/04/09 09:00:28;;;;;;;38.50;26.38;;;16.00;99.90;;;;;;5059426;28;21366;-64
2023/04/09 09:03:03;;;;;;;39.13;26.83;;;16.40;99.90;;;;;;5061787;28;20037;-65
2023/04/09 09:05:36;;;;;;;35.92;24.85;;;16.70;99.90;;;;;;5045765;28;20399;-65
2023/04/09 09:08:02;;;;;;;37.42;26.65;;;16.80;99.90;;;;;;5059254;28;20044;-65
2023/04/09 09:10:46;;;;;;;34.17;24.35;;;17.10;99.40;;;;;;5057488;28;21122;-66
2023/04/09 09:13:38;;;;;;;36.53;24.67;;;17.40;98.00;;;;;;5060324;28;20055;-65
2023/04/09 09:16:15;;;;;;;36.30;24.85;;;17.50;98.20;;;;;;5055372;28;20494;-65
2023/04/09 09:18:42;;;;;;;33.38;24.13;;;17.70;97.70;;;;;;5071913;28;20071;-65
2023/04/09 09:21:16;;;;;;;36.00;25.10;;;17.80;98.70;;;;;;5061822;28;20106;-65
2023/04/09 09:23:43;;;;;;;33.55;23.00;;;17.00;97.90;;;;;;5060172;28;20024;-65
2023/04/09 09:26:25;;;;;;;40.17;29.40;;;17.40;98.10;;;;;;5060496;28;20059;-65
2023/04/09 09:28:51;;;;;;;;;;;17.90;97.30;;;;;;5062867;28;20571;-65
2023/04/09 09:31:19;;;;;;;35.22;23.92;;;17.70;97.60;;;;;;5060933;28;19921;-65
2023/04/09 09:33:47;;;;;;;39.28;25.60;;;17.70;96.80;;;;;;5063282;28;20444;-65
2023/04/09 09:36:13;;;;;;;34.38;24.80;;;17.50;97.20;;;;;;5061129;28;20130;-65
2023/04/09 09:38:57;;;;;;;42.00;27.92;;;17.90;97.80;;;;;;5060244;28;20040;-66
2023/04/09 09:41:23;;;;;;;37.55;26.30;;;17.60;97.90;;;;;;5041470;28;20071;-66
2023/04/09 09:43:49;;;;;;;33.78;25.48;;;17.60;97.40;;;;;;5026786;28;20040;-66
2023/04/09 09:46:16;;;;;;;36.75;25.45;;;17.30;98.00;;;;;;5060499;28;20035;-65
2023/04/09 09:48:43;;;;;;;39.38;27.48;;;17.40;97.90;;;;;;5055514;28;20045;-66
2023/04/09 09:51:10;;;;;;;37.75;26.48;;;17.40;98.20;;;;;;5060301;28;20063;-65
2023/04/09 09:53:37;;;;;;;33.40;24.98;;;17.60;97.70;;;;;;5060473;28;20075;-65
2023/04/09 09:56:11;;;;;;;36.17;27.40;;;17.80;98.10;;;;;;5059364;28;20048;-66
2023/04/09 09:58:42;;;;;;;34.97;25.63;;;17.60;97.30;;;;;;5061792;28;20090;-66
2023/04/09 10:01:11;;;;;;;34.42;25.73;;;17.70;97.90;;;;;;5059179;28;20041;-66
2023/04/09 10:03:38;;;;;;;39.35;28.35;;;18.00;97.40;;;;;;5060446;28;20025;-66
2023/04/09 10:06:06;;;;;;;41.72;29.70;;;18.40;97.40;;;;;;5062990;28;20032;-66
2023/04/09 10:08:33;;;;;;;35.40;24.50;;;18.20;97.10;;;;;;5062088;28;20043;-66
2023/04/09 10:11:00;;;;;;;33.63;24.40;;;18.20;96.50;;;;;;5062458;28;20116;-66
2023/04/09 10:13:33;;;;;;;37.50;26.45;;;18.10;97.10;;;;;;5069266;28;20052;-66
2023/04/09 10:16:00;;;;;;;36.67;24.73;;;18.30;96.50;;;;;;5061628;28;20037;-67
2023/04/09 10:18:27;;;;;;;32.75;22.95;;;18.20;97.10;;;;;;5063920;28;20119;-66
2023/04/09 10:20:57;;;;;;;36.70;25.70;;;18.30;96.70;;;;;;5059934;28;20078;-65
2023/04/09 10:23:38;;;;;;;41.55;24.95;;;18.30;95.90;;;;;;5056699;28;20131;-65
2023/04/09 10:26:04;;;;;;;34.90;25.40;;;17.50;95.60;;;;;;5060192;28;20525;-66
2023/04/09 10:28:30;;;;;;;34.28;23.90;;;17.10;97.80;;;;;;5060514;28;20054;-66
2023/04/09 10:30:58;;;;;;;31.23;23.05;;;17.40;97.60;;;;;;5059230;28;20036;-65
2023/04/09 10:33:25;;;;;;;30.85;23.02;;;17.60;97.50;;;;;;5058907;28;20028;-65
2023/04/09 10:35:53;;;;;;;29.85;20.90;;;17.40;95.70;;;;;;5060661;28;20055;-65
2023/04/09 10:38:32;;;;;;;33.85;25.50;;;17.00;96.00;;;;;;5039845;28;20127;-66
2023/04/09 10:40:58;;;;;;;31.73;22.90;;;17.20;96.10;;;;;;5057191;28;20032;-66
2023/04/09 10:43:23;;;;;;;33.97;24.58;;;17.50;96.30;;;;;;5059507;28;20036;-66
2023/04/09 10:45:52;;;;;;;29.75;20.67;;;18.00;96.90;;;;;;5056477;28;20129;-66
2023/04/09 10:48:19;;;;;;;34.30;21.40;;;18.50;95.90;;;;;;5068061;28;20049;-66
2023/04/09 10:50:45;;;;;;;29.88;22.27;;;18.60;94.70;;;;;;5060880;28;20048;-66
2023/04/09 10:53:24;;;;;;;31.20;21.30;;;18.70;94.20;;;;;;5052680;28;20069;-65
2023/04/09 10:55:52;;;;;;;31.70;21.52;;;18.40;94.10;;;;;;5061756;28;20090;-65
2023/04/09 10:58:18;;;;;;;30.67;21.83;;;18.80;93.90;;;;;;5062074;28;20358;-66
2023/04/09 11:00:49;;;;;;;25.23;18.95;;;18.70;93.90;;;;;;5047472;28;20557;-65
2023/04/09 11:03:29;;;;;;;24.08;17.50;;;19.00;92.80;;;;;;5045977;28;20041;-65
2023/04/09 11:06:01;;;;;;;24.50;17.30;;;18.80;91.50;;;;;;5060049;28;20068;-66
2023/04/09 11:08:27;;;;;;;;;;;19.00;90.10;;;;;;5061891;28;20067;-65
2023/04/09 11:10:57;;;;;;;27.65;19.60;;;17.90;90.50;;;;;;5065504;28;19962;-66
2023/04/09 11:13:23;;;;;;;24.90;17.45;;;17.40;92.40;;;;;;5061009;28;20056;-66
2023/04/09 11:15:49;;;;;;;26.58;18.92;;;17.70;91.60;;;;;;5065900;28;20048;-66
2023/04/09 11:18:22;;;;;;;24.25;16.60;;;17.40;91.30;;;;;;5062644;28;20043;-66
2023/04/09 11:20:48;;;;;;;30.25;20.52;;;17.20;91.00;;;;;;5080276;28;20546;-66
2023/04/09 11:23:16;;;;;;;30.52;21.38;;;16.90;92.20;;;;;;5063454;28;20078;-66
2023/04/09 11:25:47;;;;;;;24.63;16.95;;;16.50;92.60;;;;;;5062711;28;20107;-66
2023/04/09 11:28:13;;;;;;;25.50;16.80;;;15.60;92.20;;;;;;5061984;28;20435;-65
2023/04/09 11:30:38;;;;;;;27.42;18.48;;;14.50;93.00;;;;;;5061871;28;20045;-65
2023/04/09 11:33:07;;;;;;;26.85;18.40;;;14.30;93.50;;;;;;5067491;28;20093;-66
2023/04/09 11:35:35;;;;;;;26.58;17.60;;;14.70;94.80;;;;;;5066959;28;20036;-66
2023/04/09 11:38:04;;;;;;;28.95;17.67;;;15.30;95.00;;;;;;5063680;28;20055;-66
2023/04/09 11:40:30;;;;;;;25.52;16.58;;;15.70;94.40;;;;;;5063248;28;20037;-66
2023/04/09 11:42:56;;;;;;;27.33;17.65;;;16.10;93.70;;;;;;5065844;28;20416;-66
2023/04/09 11:45:27;;;;;;;25.20;17.35;;;16.50;94.10;;;;;;5061991;28;20032;-66
2023/04/09 11:47:53;;;;;;;23.30;16.48;;;16.70;93.40;;;;;;5070625;28;20036;-66
2023/04/09 11:50:19;;;;;;;23.55;16.80;;;16.60;92.50;;;;;;5064596;28;20174;-66
2023/04/09 11:52:46;;;;;;;19.00;13.20;;;16.30;93.40;;;;;;5069549;28;20182;-66
2023/04/09 11:55:21;;;;;;;19.52;13.68;;;16.20;92.70;;;;;;5070312;28;20033;-66
2023/04/09 11:57:47;;;;;;;21.08;14.60;;;16.10;92.70;;;;;;5069826;28;20508;-66
2023/04/09 12:00:14;;;;;;;19.80;14.75;;;15.90;92.70;;;;;;5071247;28;20068;-66
2023/04/09 12:02:45;;;;;;;26.23;14.82;;;15.90;92.90;;;;;;5068260;28;20111;-66
2023/04/09 12:05:20;;;;;;;20.83;14.50;;;16.10;92.60;;;;;;5069400;28;20033;-66
2023/04/09 12:07:46;;;;;;;20.45;14.38;;;15.50;92.50;;;;;;5071190;28;20082;-66
2023/04/09 12:10:12;;;;;;;19.67;13.55;;;15.00;92.50;;;;;;5076592;28;20036;-66
2023/04/09 12:12:47;;;;;;;17.92;12.63;;;15.00;92.60;;;;;;5086334;28;20036;-66
2023/04/09 12:15:22;;;;;;;20.45;13.68;;;15.20;92.80;;;;;;5052299;28;20433;-66
2023/04/09 12:17:54;;;;;;;18.88;12.65;;;15.00;92.80;;;;;;5067702;28;20037;-66
2023/04/09 12:20:46;;;;;;;18.17;12.68;;;15.00;93.60;;;;;;5070984;28;20064;-66
2023/04/09 12:23:12;;;;;;;18.05;13.40;;;15.00;93.10;;;;;;5070145;28;20044;-66
2023/04/09 12:25:40;;;;;;;21.00;14.90;;;15.10;93.20;;;;;;5062047;28;20036;-66
2023/04/09 12:28:07;;;;;;;20.83;14.60;;;15.20;93.50;;;;;;5070229;28;20032;-66
2023/04/09 12:30:33;;;;;;;18.92;13.18;;;15.30;93.30;;;;;;5070826;28;20086;-66
2023/04/09 12:32:59;;;;;;;20.42;14.13;;;15.70;93.30;;;;;;5068056;28;20423;-66
2023/04/09 12:35:25;;;;;;;20.33;13.60;;;16.00;93.00;;;;;;5070242;28;20044;-66
2023/04/09 12:37:51;;;;;;;18.42;12.52;;;16.30;93.00;;;;;;5071049;28;20041;-66